»·PEaware :: N43XS KVCV-KLAX

N43XS :: KVCV-KLAX

FLIGHT INFORMATION

Flight Status: Arrived
Operator: Privately registered:
United States
More flights under this callsign
Pilot: Norberto Goizueta (3795)
Aircraft: BEECH AIRCRAFT A90-E90 KING AIR
(BE9L)
More flights by this aircraft type
Origin: KVCV Socal Logistics
United States
Destination: KLAX Los Angeles Intl
United States
More flights between these airports :: More routes between these airports
Route: PMD KIMMO3
File this flight plan on PilotEdge
Remarks:
Altitude:
(Current/Filed)
10,000ft
Speed:
(Current/Filed)
210kts
Departed: 17-Feb-17 09:03 AM
Arrived: 17-Feb-17 09:46 AM
Distance/Time
Traveled:
64nm/0:43
Distance/Time
To Go:
Arrived

Flight Plot

Page will automatically refresh every two minutes.

Flight plan parsing failed; only flown route is shown


Map Options




Map Legend


Flown Route
Filed Route
Departure Airport
Arrival Airport
Navaid (VOR, NDB)
Fix

Horizontal Profiles

Position Reports

Time Latitude Longitude Heading Altitude Ground
Speed
17-Feb-17 08:41 34.584424 -117.381279 315 2887ft 0kts
17-Feb-17 08:42 34.584424 -117.381279 315 2887ft 0kts
17-Feb-17 08:43 34.584424 -117.381279 315 2887ft 0kts
17-Feb-17 08:44 34.584424 -117.381279 315 2887ft 0kts
17-Feb-17 08:45 34.584424 -117.381279 315 2887ft 0kts
17-Feb-17 08:46 34.584424 -117.381279 315 2887ft 0kts
17-Feb-17 08:47 34.584424 -117.381279 315 2887ft 0kts
17-Feb-17 08:48 34.584424 -117.381279 315 2887ft 0kts
17-Feb-17 08:49 34.584424 -117.381279 315 2887ft 0kts
17-Feb-17 08:50 34.584424 -117.381279 315 2887ft 0kts
17-Feb-17 08:51 34.584424 -117.381279 315 2887ft 0kts
17-Feb-17 08:52 34.584424 -117.381279 315 2887ft 0kts
17-Feb-17 08:53 34.584424 -117.381279 315 2887ft 0kts
17-Feb-17 08:54 34.584424 -117.381279 315 2887ft 0kts
17-Feb-17 08:55 34.584424 -117.381279 315 2887ft 0kts
17-Feb-17 08:56 34.584694 -117.381614 313 2887ft 0kts
17-Feb-17 08:57 34.587008 -117.379780 44 2887ft 26kts
17-Feb-17 08:58 34.592779 -117.372917 38 2887ft 31kts
17-Feb-17 08:59 34.594063 -117.372715 359 2887ft 0kts
17-Feb-17 09:00 34.594063 -117.372715 359 2887ft 0kts
17-Feb-17 09:01 34.594063 -117.372715 359 2887ft 0kts
17-Feb-17 09:02 34.594063 -117.372715 359 2887ft 0kts
17-Feb-17 09:03 34.593979 -117.374320 222 2887ft 49kts
17-Feb-17 09:04 34.574811 -117.400347 251 4027ft 137kts
17-Feb-17 09:05 34.574083 -117.452122 262 5479ft 164kts
17-Feb-17 09:06 34.576123 -117.503797 272 7260ft 154kts
17-Feb-17 09:07 34.583075 -117.555336 270 8533ft 160kts
17-Feb-17 09:08 34.588752 -117.609329 272 9585ft 165kts
17-Feb-17 09:09 34.593895 -117.665822 271 9988ft 178kts
17-Feb-17 09:10 34.600829 -117.726266 275 9928ft 190kts
17-Feb-17 09:11 34.604945 -117.787902 272 10096ft 184kts
17-Feb-17 09:12 34.609447 -117.849573 272 10075ft 191kts
17-Feb-17 09:13 34.615460 -117.912361 273 10085ft 194kts
17-Feb-17 09:14 34.624066 -117.977234 279 10052ft 195kts
17-Feb-17 09:15 34.626482 -118.042726 269 9974ft 194kts
17-Feb-17 09:16 34.598548 -118.095133 232 10046ft 190kts
17-Feb-17 09:17 34.570413 -118.148187 237 9917ft 192kts
17-Feb-17 09:18 34.539649 -118.200517 235 9142ft 193kts
17-Feb-17 09:19 34.509071 -118.252694 231 8009ft 193kts
17-Feb-17 09:20 34.478589 -118.301139 233 7916ft 186kts
17-Feb-17 09:21 34.452507 -118.342890 231 7928ft 181kts
17-Feb-17 09:22 34.423040 -118.389137 224 7986ft 179kts
17-Feb-17 09:23 34.377456 -118.382994 155 8019ft 189kts
17-Feb-17 09:24 34.331539 -118.354449 162 8096ft 181kts
17-Feb-17 09:25 34.284229 -118.353576 189 7437ft 171kts
17-Feb-17 09:26 34.237704 -118.365289 190 6458ft 172kts
17-Feb-17 09:27 34.192790 -118.380439 193 6037ft 153kts
17-Feb-17 09:28 34.152417 -118.394721 189 5835ft 158kts
17-Feb-17 09:29 34.113465 -118.409221 191 6067ft 151kts
17-Feb-17 09:30 34.074235 -118.422957 188 5938ft 159kts
17-Feb-17 09:31 34.035022 -118.440239 212 5979ft 166kts
17-Feb-17 09:32 34.022822 -118.497556 253 6011ft 186kts
17-Feb-17 09:33 34.016209 -118.560141 253 5932ft 191kts
17-Feb-17 09:34 34.007086 -118.622299 252 5918ft 191kts
17-Feb-17 09:35 33.998635 -118.685679 250 5912ft 191kts
17-Feb-17 09:36 33.985793 -118.746841 215 5933ft 177kts
17-Feb-17 09:37 33.943010 -118.756948 180 5271ft 163kts
17-Feb-17 09:38 33.921252 -118.717479 112 3766ft 168kts
17-Feb-17 09:39 33.907189 -118.669139 93 2968ft 146kts
17-Feb-17 09:40 33.913620 -118.620874 90 2413ft 149kts
17-Feb-17 09:41 33.918801 -118.570673 91 1818ft 140kts
17-Feb-17 09:42 33.922987 -118.529983 83 1698ft 124kts
17-Feb-17 09:43 33.926683 -118.488628 84 1406ft 122kts
17-Feb-17 09:44 33.930626 -118.448853 84 730ft 118kts
17-Feb-17 09:45 33.934428 -118.411705 86 131ft 87kts
17-Feb-17 09:47 33.934382 -118.401899 136 128ft 16kts
17-Feb-17 09:48 33.933285 -118.400578 173 128ft 0kts
17-Feb-17 09:49 33.933285 -118.400578 173 128ft 0kts
17-Feb-17 09:50 33.933285 -118.400578 173 128ft 0kts
17-Feb-17 09:51 33.933285 -118.400578 173 128ft 0kts
17-Feb-17 09:52 33.933285 -118.400578 173 128ft 0kts
17-Feb-17 09:53 33.933285 -118.400578 173 128ft 0kts
17-Feb-17 09:54 33.933285 -118.400578 173 128ft 0kts

Navigation Log

Ident Type
Flight plan parsing failed, navigation log unavailable